Thunder radar more information blitzortung!


Radar de pluja more information rain snow radar


Visita la nostra xarxa de llocs de meteo:

Template documentation
and downloads

And another site



No particular awareness of the weather is required.    There are no Weather-warnings

Pagina Historial Weather Underground text

Diari Resum Juny 13, 2017 Unitats:  Tant    Imperial   Mètric
« Previous Dia
SegĂźent Dia »
Diari Setmana Mensual Anual Personalitzada
  Maxima: Minima: Media:
Temperatura: 96.8 °F /  36.0 °C 66.7 °F /  19.3 °C 85.5 °F /  29.7 °C
Punt de rosada: 59.2 °F /  15.1 °C 39 °F /  3.9 °C 50.9 °F /  10.5 °C
Humitat: 54 % 17 % 32 %
Wind Speed: 13.8 mph /  22.2 km/h - 4.5 mph /  7.3 km/h
RĂ fegues de vent: 13.8 mph /  22.2 km/h - -
Vent:- - SSW
Pression baro: 29.9 in /  1013.8 hPa 29.8 in /  1009.0 hPa -
Precipitacions: 0 in /  0.0 mm    
Historical Graphs
 
 
Dades de taula per Juny 13, 2017
Temps Temperatura Punt de rosada Pression baro Vent Wind Speed RĂ fegues de vent Humitat Rainfall Rate (Hourly)
00:00 68 °F /  20.0 °C 49.3 °F /  9.6 °C 29.9 in /  1012.8 hPa Calm   2 mph /  3.2 km/h 51 % 0 in /  0.0 mm
00:04 75.7 °F /  24.3 °C 49.6 °F /  9.8 °C 29.9 in /  1012.8 hPa SW 2.6 mph /  4.2 km/h 2.6 mph /  4.2 km/h 40 % 0 in /  0.0 mm
00:10 67.5 °F /  19.7 °C 48.7 °F /  9.3 °C 29.9 in /  1012.8 hPa SW 1 mph /  1.6 km/h 1 mph /  1.6 km/h 51 % 0 in /  0.0 mm
00:20 67.3 °F /  19.6 °C 48.9 °F /  9.4 °C 29.9 in /  1012.8 hPa SW 1 mph /  1.6 km/h 1 mph /  1.6 km/h 52 % 0 in /  0.0 mm
00:30 67.1 °F /  19.5 °C 48.9 °F /  9.4 °C 29.9 in /  1012.8 hPa SW 1 mph /  1.6 km/h 2 mph /  3.2 km/h 52 % 0 in /  0.0 mm
00:40 66.9 °F /  19.4 °C 48.7 °F /  9.3 °C 29.9 in /  1012.8 hPa Calm   1 mph /  1.6 km/h 52 % 0 in /  0.0 mm
00:50 66.9 °F /  19.4 °C 49.3 °F /  9.6 °C 29.9 in /  1012.8 hPa Calm     53 % 0 in /  0.0 mm
01:00 66.9 °F /  19.4 °C 49.3 °F /  9.6 °C 29.9 in /  1012.8 hPa Calm     53 % 0 in /  0.0 mm
01:10 67.1 °F /  19.5 °C 49.8 °F /  9.9 °C 29.9 in /  1012.8 hPa Calm     54 % 0 in /  0.0 mm
01:20 66.9 °F /  19.4 °C 49.6 °F /  9.8 °C 29.9 in /  1012.8 hPa Calm     54 % 0 in /  0.0 mm
01:30 66.7 °F /  19.3 °C 49.6 °F /  9.8 °C 29.9 in /  1012.8 hPa Calm   1 mph /  1.6 km/h 54 % 0 in /  0.0 mm
01:40 66.7 °F /  19.3 °C 49.6 °F /  9.8 °C 29.9 in /  1012.8 hPa Calm   1 mph /  1.6 km/h 54 % 0 in /  0.0 mm
01:50 67.3 °F /  19.6 °C 50.2 °F /  10.1 °C 29.9 in /  1013.8 hPa Calm   2 mph /  3.2 km/h 54 % 0 in /  0.0 mm
02:00 67.6 °F /  19.8 °C 50.4 °F /  10.2 °C 29.9 in /  1013.8 hPa SW 1 mph /  1.6 km/h 2 mph /  3.2 km/h 54 % 0 in /  0.0 mm
02:10 68 °F /  20.0 °C 50.2 °F /  10.1 °C 29.9 in /  1013.8 hPa Calm   1 mph /  1.6 km/h 53 % 0 in /  0.0 mm
02:20 68.5 °F /  20.3 °C 50.2 °F /  10.1 °C 29.9 in /  1013.8 hPa SW 1 mph /  1.6 km/h 2 mph /  3.2 km/h 52 % 0 in /  0.0 mm
02:30 69.1 °F /  20.6 °C 50.7 °F /  10.4 °C 29.9 in /  1013.8 hPa SW 1 mph /  1.6 km/h 2 mph /  3.2 km/h 52 % 0 in /  0.0 mm
02:40 70.7 °F /  21.5 °C 51.6 °F /  10.9 °C 29.9 in /  1013.8 hPa Calm   1 mph /  1.6 km/h 51 % 0 in /  0.0 mm
02:50 71.8 °F /  22.1 °C 52.7 °F /  11.5 °C 29.9 in /  1013.8 hPa Calm   1 mph /  1.6 km/h 51 % 0 in /  0.0 mm
03:00 72.7 °F /  22.6 °C 53.1 °F /  11.7 °C 29.9 in /  1013.8 hPa Calm     50 % 0 in /  0.0 mm
03:10 73.9 °F /  23.3 °C 53.6 °F /  12.0 °C 29.9 in /  1013.8 hPa SSE 1 mph /  1.6 km/h 1 mph /  1.6 km/h 49 % 0 in /  0.0 mm
03:20 75.2 °F /  24.0 °C 54.7 °F /  12.6 °C 29.9 in /  1013.8 hPa Calm   1 mph /  1.6 km/h 49 % 0 in /  0.0 mm
03:30 75.6 °F /  24.2 °C 54.5 °F /  12.5 °C 29.9 in /  1013.8 hPa East 1 mph /  1.6 km/h 2 mph /  3.2 km/h 48 % 0 in /  0.0 mm
03:40 75.6 °F /  24.2 °C 54.5 °F /  12.5 °C 29.9 in /  1013.8 hPa ESE 1 mph /  1.6 km/h 2 mph /  3.2 km/h 48 % 0 in /  0.0 mm
03:50 76.6 °F /  24.8 °C 54.9 °F /  12.7 °C 29.9 in /  1013.8 hPa SW 1 mph /  1.6 km/h 2 mph /  3.2 km/h 47 % 0 in /  0.0 mm
03:55 77 °F /  25.0 °C 54.7 °F /  12.6 °C 29.9 in /  1013.8 hPa Calm     46 % 0 in /  0.0 mm
04:05 78.1 °F /  25.6 °C 55.6 °F /  13.1 °C 29.9 in /  1013.8 hPa Calm   3 mph /  4.8 km/h 46 % 0 in /  0.0 mm
04:15 79 °F /  26.1 °C 55.8 °F /  13.2 °C 29.9 in /  1013.8 hPa Calm   2 mph /  3.2 km/h 45 % 0 in /  0.0 mm
04:25 79.7 °F /  26.5 °C 55.9 °F /  13.3 °C 29.9 in /  1013.8 hPa ENE 1 mph /  1.6 km/h 3 mph /  4.8 km/h 44 % 0 in /  0.0 mm
04:35 80.1 °F /  26.7 °C 56.1 °F /  13.4 °C 29.9 in /  1013.8 hPa ESE 2 mph /  3.2 km/h 2 mph /  3.2 km/h 44 % 0 in /  0.0 mm
04:45 81 °F /  27.2 °C 56.5 °F /  13.6 °C 29.9 in /  1012.8 hPa SSE 1 mph /  1.6 km/h 1 mph /  1.6 km/h 43 % 0 in /  0.0 mm
04:55 81.7 °F /  27.6 °C 57 °F /  13.9 °C 29.9 in /  1013.8 hPa SSE 2 mph /  3.2 km/h 2 mph /  3.2 km/h 43 % 0 in /  0.0 mm
05:05 83.1 °F /  28.4 °C 57.6 °F /  14.2 °C 29.9 in /  1013.8 hPa SSW 1 mph /  1.6 km/h 4 mph /  6.4 km/h 42 % 0 in /  0.0 mm
05:15 83.7 °F /  28.7 °C 57.6 °F /  14.2 °C 29.9 in /  1013.8 hPa SW 3 mph /  4.8 km/h 3 mph /  4.8 km/h 41 % 0 in /  0.0 mm
05:25 84.9 °F /  29.4 °C 57.9 °F /  14.4 °C 29.9 in /  1013.8 hPa SW 1 mph /  1.6 km/h 3 mph /  4.8 km/h 40 % 0 in /  0.0 mm
05:35 86 °F /  30.0 °C 58.8 °F /  14.9 °C 29.9 in /  1013.8 hPa SW 1 mph /  1.6 km/h 3 mph /  4.8 km/h 40 % 0 in /  0.0 mm
10:38 87.1 °F /  30.6 °C 59.2 °F /  15.1 °C 29.9 in /  1013.8 hPa SW 1.2 mph /  1.9 km/h 1.6 mph /  2.6 km/h 39 % 0 in /  0.0 mm
10:43 86.5 °F /  30.3 °C 58.6 °F /  14.8 °C 29.9 in /  1013.8 hPa SW 6.9 mph /  11.1 km/h 6.9 mph /  11.1 km/h 39 % 0 in /  0.0 mm
10:48 86.7 °F /  30.4 °C 58.1 °F /  14.5 °C 29.9 in /  1013.8 hPa SSE 4.6 mph /  7.4 km/h 4.6 mph /  7.4 km/h 38 % 0 in /  0.0 mm
10:53 87.3 °F /  30.7 °C 58.6 °F /  14.8 °C 29.9 in /  1013.8 hPa South 4.9 mph /  7.9 km/h 4.9 mph /  7.9 km/h 38 % 0 in /  0.0 mm
10:58 86.9 °F /  30.5 °C 57.6 °F /  14.2 °C 29.9 in /  1013.8 hPa WSW 3.8 mph /  6.1 km/h 3.8 mph /  6.1 km/h 37 % 0 in /  0.0 mm
11:03 88.3 °F /  31.3 °C 57.9 °F /  14.4 °C 29.9 in /  1013.8 hPa SSE 4.6 mph /  7.4 km/h 4.6 mph /  7.4 km/h 36 % 0 in /  0.0 mm
11:08 88.9 °F /  31.6 °C 58.5 °F /  14.7 °C 29.9 in /  1013.8 hPa SSW 2.3 mph /  3.7 km/h 2.3 mph /  3.7 km/h 36 % 0 in /  0.0 mm
11:13 89.2 °F /  31.8 °C 58.8 °F /  14.9 °C 29.9 in /  1013.8 hPa West 3.6 mph /  5.8 km/h 3.6 mph /  5.8 km/h 36 % 0 in /  0.0 mm
11:18 88.5 °F /  31.4 °C 57.4 °F /  14.1 °C 29.9 in /  1013.8 hPa South 4.6 mph /  7.4 km/h 4.6 mph /  7.4 km/h 35 % 0 in /  0.0 mm
11:23 88.2 °F /  31.2 °C 57 °F /  13.9 °C 29.9 in /  1013.8 hPa SSE 6.9 mph /  11.1 km/h 6.9 mph /  11.1 km/h 35 % 0 in /  0.0 mm
11:28 89.1 °F /  31.7 °C 57.7 °F /  14.3 °C 29.9 in /  1013.8 hPa SSW 3.5 mph /  5.6 km/h 3.5 mph /  5.6 km/h 35 % 0 in /  0.0 mm
11:38 89.6 °F /  32.0 °C 56.7 °F /  13.7 °C 29.9 in /  1013.8 hPa WSW 6.9 mph /  11.1 km/h 6.9 mph /  11.1 km/h 33 % 0 in /  0.0 mm
11:43 89.6 °F /  32.0 °C 56.7 °F /  13.7 °C 29.9 in /  1013.8 hPa ENE 3.5 mph /  5.6 km/h 3.5 mph /  5.6 km/h 33 % 0 in /  0.0 mm
11:48 89.1 °F /  31.7 °C 56.1 °F /  13.4 °C 29.9 in /  1013.8 hPa ESE 2.3 mph /  3.7 km/h 3.1 mph /  5.0 km/h 33 % 0 in /  0.0 mm
11:53 90.3 °F /  32.4 °C 57.4 °F /  14.1 °C 29.9 in /  1013.8 hPa South 1.2 mph /  1.9 km/h 1.4 mph /  2.3 km/h 33 % 0 in /  0.0 mm
11:54 90.3 °F /  32.4 °C 57.4 °F /  14.1 °C 29.9 in /  1013.8 hPa South 1.2 mph /  1.9 km/h 1.4 mph /  2.3 km/h 33 % 0 in /  0.0 mm
11:59 90.1 °F /  32.3 °C 57.2 °F /  14.0 °C 29.9 in /  1013.8 hPa South 1.2 mph /  1.9 km/h 1.4 mph /  2.3 km/h 33 % 0 in /  0.0 mm
12:04 89.4 °F /  31.9 °C 56.5 °F /  13.6 °C 29.9 in /  1012.8 hPa ESE 6 mph /  9.7 km/h 6 mph /  9.7 km/h 33 % 0 in /  0.0 mm
12:09 90.9 °F /  32.7 °C 56.8 °F /  13.8 °C 29.9 in /  1012.8 hPa SSE 3.5 mph /  5.6 km/h 3.5 mph /  5.6 km/h 32 % 0 in /  0.0 mm
12:14 91.4 °F /  33.0 °C 57.4 °F /  14.1 °C 29.9 in /  1012.8 hPa SW 5.8 mph /  9.3 km/h 5.8 mph /  9.3 km/h 32 % 0 in /  0.0 mm
12:19 91.2 °F /  32.9 °C 56.5 °F /  13.6 °C 29.9 in /  1012.8 hPa SE 4.9 mph /  7.9 km/h 4.9 mph /  7.9 km/h 31 % 0 in /  0.0 mm
12:24 90.7 °F /  32.6 °C 55.9 °F /  13.3 °C 29.9 in /  1012.8 hPa ESE 1.6 mph /  2.6 km/h 4 mph /  6.4 km/h 31 % 0 in /  0.0 mm
12:29 90 °F /  32.2 °C 55.2 °F /  12.9 °C 29.9 in /  1012.8 hPa SW 5.8 mph /  9.3 km/h 5.8 mph /  9.3 km/h 31 % 0 in /  0.0 mm
12:34 91.2 °F /  32.9 °C 56.5 °F /  13.6 °C 29.9 in /  1012.8 hPa WSW 6 mph /  9.7 km/h 6 mph /  9.7 km/h 31 % 0 in /  0.0 mm
12:39 91.8 °F /  33.2 °C 55.9 °F /  13.3 °C 29.9 in /  1012.8 hPa SE 2.6 mph /  4.2 km/h 2.6 mph /  4.2 km/h 30 % 0 in /  0.0 mm
12:44 91.9 °F /  33.3 °C 56.1 °F /  13.4 °C 29.9 in /  1012.8 hPa South 2.4 mph /  3.9 km/h 3.3 mph /  5.3 km/h 30 % 0 in /  0.0 mm
12:49 93.2 °F /  34.0 °C 57.2 °F /  14.0 °C 29.9 in /  1012.8 hPa SW 6.9 mph /  11.1 km/h 6.9 mph /  11.1 km/h 30 % 0 in /  0.0 mm
12:54 93.2 °F /  34.0 °C 56.1 °F /  13.4 °C 29.9 in /  1012.8 hPa SE 3.5 mph /  5.6 km/h 3.5 mph /  5.6 km/h 29 % 0 in /  0.0 mm
13:04 91 °F /  32.8 °C 55.2 °F /  12.9 °C 29.9 in /  1011.7 hPa ESE 6.9 mph /  11.1 km/h 6.9 mph /  11.1 km/h 30 % 0 in /  0.0 mm
13:09 91 °F /  32.8 °C 55.2 °F /  12.9 °C 29.9 in /  1011.7 hPa NE 5.8 mph /  9.3 km/h 5.8 mph /  9.3 km/h 30 % 0 in /  0.0 mm
13:14 90.3 °F /  32.4 °C 54.7 °F /  12.6 °C 29.9 in /  1011.7 hPa East 8.1 mph /  13.0 km/h 8.1 mph /  13.0 km/h 30 % 0 in /  0.0 mm
13:19 90.7 °F /  32.6 °C 55 °F /  12.8 °C 29.9 in /  1011.7 hPa ESE 9.2 mph /  14.8 km/h 9.2 mph /  14.8 km/h 30 % 0 in /  0.0 mm
13:24 90.7 °F /  32.6 °C 55 °F /  12.8 °C 29.9 in /  1011.7 hPa East 9.2 mph /  14.8 km/h 9.2 mph /  14.8 km/h 30 % 0 in /  0.0 mm
13:29 90.9 °F /  32.7 °C 55 °F /  12.8 °C 29.9 in /  1011.7 hPa ESE 6.2 mph /  10.0 km/h 6.2 mph /  10.0 km/h 30 % 0 in /  0.0 mm
13:34 90.9 °F /  32.7 °C 55 °F /  12.8 °C 29.9 in /  1011.7 hPa ENE 9.2 mph /  14.8 km/h 9.2 mph /  14.8 km/h 30 % 0 in /  0.0 mm
13:39 90.9 °F /  32.7 °C 55 °F /  12.8 °C 29.9 in /  1011.7 hPa ESE 5.8 mph /  9.3 km/h 5.8 mph /  9.3 km/h 30 % 0 in /  0.0 mm
13:44 90.9 °F /  32.7 °C 55 °F /  12.8 °C 29.9 in /  1011.7 hPa SW 5.8 mph /  9.3 km/h 5.8 mph /  9.3 km/h 30 % 0 in /  0.0 mm
13:49 93 °F /  33.9 °C 56.1 °F /  13.4 °C 29.9 in /  1011.7 hPa ESE 6 mph /  9.7 km/h 6 mph /  9.7 km/h 29 % 0 in /  0.0 mm
13:54 92.5 °F /  33.6 °C 55.6 °F /  13.1 °C 29.9 in /  1011.7 hPa NE 6.9 mph /  11.1 km/h 6.9 mph /  11.1 km/h 29 % 0 in /  0.0 mm
13:59 91.9 °F /  33.3 °C 54.1 °F /  12.3 °C 29.9 in /  1011.7 hPa East 4.6 mph /  7.4 km/h 4.6 mph /  7.4 km/h 28 % 0 in /  0.0 mm
14:04 92.7 °F /  33.7 °C 55.8 °F /  13.2 °C 29.9 in /  1011.7 hPa SSW 4 mph /  6.4 km/h 4 mph /  6.4 km/h 29 % 0 in /  0.0 mm
14:09 93 °F /  33.9 °C 55 °F /  12.8 °C 29.9 in /  1011.7 hPa WSW 8.1 mph /  13.0 km/h 8.1 mph /  13.0 km/h 28 % 0 in /  0.0 mm
14:14 94.1 °F /  34.5 °C 55.9 °F /  13.3 °C 29.9 in /  1011.7 hPa ESE 5.9 mph /  9.5 km/h 5.9 mph /  9.5 km/h 28 % 0 in /  0.0 mm
14:19 94.3 °F /  34.6 °C 56.1 °F /  13.4 °C 29.8 in /  1010.7 hPa ESE 2.3 mph /  3.7 km/h 2.3 mph /  3.7 km/h 28 % 0 in /  0.0 mm
14:24 94.1 °F /  34.5 °C 55 °F /  12.8 °C 29.8 in /  1010.7 hPa WSW 3.8 mph /  6.1 km/h 3.8 mph /  6.1 km/h 27 % 0 in /  0.0 mm
14:29 95 °F /  35.0 °C 54.7 °F /  12.6 °C 29.8 in /  1010.7 hPa SW 5.8 mph /  9.3 km/h 5.8 mph /  9.3 km/h 26 % 0 in /  0.0 mm
14:34 95.4 °F /  35.2 °C 55 °F /  12.8 °C 29.8 in /  1010.7 hPa SW 6.9 mph /  11.1 km/h 6.9 mph /  11.1 km/h 26 % 0 in /  0.0 mm
14:39 94.8 °F /  34.9 °C 55.6 °F /  13.1 °C 29.8 in /  1010.7 hPa SSW 4.6 mph /  7.4 km/h 4.6 mph /  7.4 km/h 27 % 0 in /  0.0 mm
14:44 94.8 °F /  34.9 °C 55.6 °F /  13.1 °C 29.8 in /  1010.7 hPa SW 10.5 mph /  16.9 km/h 10.5 mph /  16.9 km/h 27 % 0 in /  0.0 mm
14:49 93.7 °F /  34.3 °C 53.8 °F /  12.1 °C 29.9 in /  1011.7 hPa SW 9.2 mph /  14.8 km/h 9.2 mph /  14.8 km/h 26 % 0 in /  0.0 mm
14:54 94.5 °F /  34.7 °C 55.2 °F /  12.9 °C 29.9 in /  1011.7 hPa SW 8.1 mph /  13.0 km/h 8.1 mph /  13.0 km/h 27 % 0 in /  0.0 mm
14:59 93.9 °F /  34.4 °C 53.8 °F /  12.1 °C 29.9 in /  1011.7 hPa WSW 9.2 mph /  14.8 km/h 9.2 mph /  14.8 km/h 26 % 0 in /  0.0 mm
15:04 94.3 °F /  34.6 °C 54.1 °F /  12.3 °C 29.9 in /  1011.7 hPa WSW 7.4 mph /  11.9 km/h 7.4 mph /  11.9 km/h 26 % 0 in /  0.0 mm
15:09 93.9 °F /  34.4 °C 53.8 °F /  12.1 °C 29.9 in /  1011.7 hPa SSW 6.9 mph /  11.1 km/h 6.9 mph /  11.1 km/h 26 % 0 in /  0.0 mm
15:14 94.5 °F /  34.7 °C 54.3 °F /  12.4 °C 29.9 in /  1011.7 hPa West 6.9 mph /  11.1 km/h 6.9 mph /  11.1 km/h 26 % 0 in /  0.0 mm
15:19 94.6 °F /  34.8 °C 54.3 °F /  12.4 °C 29.9 in /  1011.7 hPa SSW 6.9 mph /  11.1 km/h 6.9 mph /  11.1 km/h 26 % 0 in /  0.0 mm
15:24 94.5 °F /  34.7 °C 54.3 °F /  12.4 °C 29.9 in /  1011.7 hPa SSW 5.8 mph /  9.3 km/h 5.8 mph /  9.3 km/h 26 % 0 in /  0.0 mm
15:29 94.8 °F /  34.9 °C 54.7 °F /  12.6 °C 29.9 in /  1011.7 hPa WSW 4.3 mph /  6.9 km/h 4.3 mph /  6.9 km/h 26 % 0 in /  0.0 mm
15:34 94.1 °F /  34.5 °C 54 °F /  12.2 °C 29.9 in /  1011.7 hPa WSW 6.9 mph /  11.1 km/h 6.9 mph /  11.1 km/h 26 % 0 in /  0.0 mm
15:39 94.8 °F /  34.9 °C 54.7 °F /  12.6 °C 29.9 in /  1011.7 hPa SW 8.1 mph /  13.0 km/h 8.1 mph /  13.0 km/h 26 % 0 in /  0.0 mm
15:44 95.7 °F /  35.4 °C 54.3 °F /  12.4 °C 29.9 in /  1011.7 hPa ESE 2.4 mph /  3.9 km/h 2.4 mph /  3.9 km/h 25 % 0 in /  0.0 mm
15:49 96.3 °F /  35.7 °C 53.6 °F /  12.0 °C 29.9 in /  1011.7 hPa South 8.1 mph /  13.0 km/h 8.1 mph /  13.0 km/h 24 % 0 in /  0.0 mm
15:54 96.3 °F /  35.7 °C 54.7 °F /  12.6 °C 29.9 in /  1011.7 hPa WSW 5.8 mph /  9.3 km/h 5.8 mph /  9.3 km/h 25 % 0 in /  0.0 mm
15:59 96.8 °F /  36.0 °C 54.1 °F /  12.3 °C 29.9 in /  1011.7 hPa SW 5.4 mph /  8.7 km/h 5.4 mph /  8.7 km/h 24 % 0 in /  0.0 mm
16:04 96.8 °F /  36.0 °C 54.1 °F /  12.3 °C 29.9 in /  1011.7 hPa West 7.4 mph /  11.9 km/h 7.4 mph /  11.9 km/h 24 % 0 in /  0.0 mm
16:09 96.8 °F /  36.0 °C 54.1 °F /  12.3 °C 29.9 in /  1011.7 hPa South 6.9 mph /  11.1 km/h 6.9 mph /  11.1 km/h 24 % 0 in /  0.0 mm
16:14 96.8 °F /  36.0 °C 54.1 °F /  12.3 °C 29.9 in /  1011.7 hPa SW 3.5 mph /  5.6 km/h 3.5 mph /  5.6 km/h 24 % 0 in /  0.0 mm
16:19 96.3 °F /  35.7 °C 53.6 °F /  12.0 °C 29.9 in /  1011.7 hPa ESE 5.8 mph /  9.3 km/h 5.8 mph /  9.3 km/h 24 % 0 in /  0.0 mm
16:24 94.8 °F /  34.9 °C 53.4 °F /  11.9 °C 29.9 in /  1011.7 hPa SW 5.8 mph /  9.3 km/h 5.8 mph /  9.3 km/h 25 % 0 in /  0.0 mm
16:29 93.7 °F /  34.3 °C 52.5 °F /  11.4 °C 29.9 in /  1011.7 hPa East 4 mph /  6.4 km/h 4 mph /  6.4 km/h 25 % 0 in /  0.0 mm
16:34 94.5 °F /  34.7 °C 53.2 °F /  11.8 °C 29.9 in /  1011.7 hPa WNW 4.6 mph /  7.4 km/h 4.6 mph /  7.4 km/h 25 % 0 in /  0.0 mm
16:39 95 °F /  35.0 °C 51.4 °F /  10.8 °C 29.9 in /  1011.7 hPa SW 9.2 mph /  14.8 km/h 9.2 mph /  14.8 km/h 23 % 0 in /  0.0 mm
16:44 94.8 °F /  34.9 °C 52.3 °F /  11.3 °C 29.9 in /  1011.7 hPa SW 8.1 mph /  13.0 km/h 8.1 mph /  13.0 km/h 24 % 0 in /  0.0 mm
16:49 94.3 °F /  34.6 °C 52 °F /  11.1 °C 29.9 in /  1011.7 hPa SW 5.8 mph /  9.3 km/h 5.8 mph /  9.3 km/h 24 % 0 in /  0.0 mm
16:54 94.1 °F /  34.5 °C 50.5 °F /  10.3 °C 29.9 in /  1011.7 hPa SW 5.8 mph /  9.3 km/h 5.8 mph /  9.3 km/h 23 % 0 in /  0.0 mm
16:59 94.3 °F /  34.6 °C 50.7 °F /  10.4 °C 29.9 in /  1011.7 hPa SW 7.1 mph /  11.4 km/h 7.1 mph /  11.4 km/h 23 % 0 in /  0.0 mm
17:04 94.1 °F /  34.5 °C 50.5 °F /  10.3 °C 29.9 in /  1011.7 hPa SW 5.8 mph /  9.3 km/h 5.8 mph /  9.3 km/h 23 % 0 in /  0.0 mm
17:09 94.3 °F /  34.6 °C 50.7 °F /  10.4 °C 29.9 in /  1011.7 hPa SW 8.1 mph /  13.0 km/h 8.1 mph /  13.0 km/h 23 % 0 in /  0.0 mm
17:14 93.4 °F /  34.1 °C 48.9 °F /  9.4 °C 29.9 in /  1011.7 hPa SSW 6.9 mph /  11.1 km/h 6.9 mph /  11.1 km/h 22 % 0 in /  0.0 mm
17:19 93.9 °F /  34.4 °C 50.5 °F /  10.3 °C 29.8 in /  1010.7 hPa SW 5.8 mph /  9.3 km/h 5.8 mph /  9.3 km/h 23 % 0 in /  0.0 mm
17:24 94.3 °F /  34.6 °C 49.6 °F /  9.8 °C 29.8 in /  1010.7 hPa WSW 5.8 mph /  9.3 km/h 5.8 mph /  9.3 km/h 22 % 0 in /  0.0 mm
17:29 94.1 °F /  34.5 °C 49.5 °F /  9.7 °C 29.8 in /  1010.7 hPa SW 6.9 mph /  11.1 km/h 6.9 mph /  11.1 km/h 22 % 0 in /  0.0 mm
17:34 93.7 °F /  34.3 °C 49.1 °F /  9.5 °C 29.8 in /  1010.7 hPa SSW 6.9 mph /  11.1 km/h 6.9 mph /  11.1 km/h 22 % 0 in /  0.0 mm
17:35 93.9 °F /  34.4 °C 49.3 °F /  9.6 °C 29.8 in /  1010.7 hPa SW 4.6 mph /  7.4 km/h 4.6 mph /  7.4 km/h 22 % 0 in /  0.0 mm
17:40 94.1 °F /  34.5 °C 49.5 °F /  9.7 °C 29.8 in /  1010.7 hPa SW 5.8 mph /  9.3 km/h 5.8 mph /  9.3 km/h 22 % 0 in /  0.0 mm
17:45 94.1 °F /  34.5 °C 49.5 °F /  9.7 °C 29.8 in /  1010.7 hPa WSW 6.9 mph /  11.1 km/h 6.9 mph /  11.1 km/h 22 % 0 in /  0.0 mm
17:50 93.2 °F /  34.0 °C 48.7 °F /  9.3 °C 29.8 in /  1010.0 hPa SSW 8.1 mph /  13.0 km/h 8.1 mph /  13.0 km/h 22 % 0 in /  0.0 mm
17:55 92.7 °F /  33.7 °C 46.9 °F /  8.3 °C 29.8 in /  1010.0 hPa West 8.1 mph /  13.0 km/h 8.1 mph /  13.0 km/h 21 % 0 in /  0.0 mm
18:00 92.7 °F /  33.7 °C 46.9 °F /  8.3 °C 29.8 in /  1010.0 hPa SW 9.2 mph /  14.8 km/h 9.2 mph /  14.8 km/h 21 % 0 in /  0.0 mm
18:02 92.7 °F /  33.7 °C 46.9 °F /  8.3 °C 29.8 in /  1010.0 hPa SW 5.8 mph /  9.3 km/h 5.8 mph /  9.3 km/h 21 % 0 in /  0.0 mm
18:07 92.3 °F /  33.5 °C 46.8 °F /  8.2 °C 29.8 in /  1010.0 hPa SW 8.1 mph /  13.0 km/h 8.1 mph /  13.0 km/h 21 % 0 in /  0.0 mm
18:12 92.5 °F /  33.6 °C 45.7 °F /  7.6 °C 29.8 in /  1010.0 hPa WSW 5.8 mph /  9.3 km/h 5.8 mph /  9.3 km/h 20 % 0 in /  0.0 mm
18:17 92.3 °F /  33.5 °C 45.3 °F /  7.4 °C 29.8 in /  1010.0 hPa WSW 8.1 mph /  13.0 km/h 8.1 mph /  13.0 km/h 20 % 0 in /  0.0 mm
18:22 91.8 °F /  33.2 °C 43.5 °F /  6.4 °C 29.8 in /  1010.0 hPa SSW 13.8 mph /  22.2 km/h 13.8 mph /  22.2 km/h 19 % 0 in /  0.0 mm
18:27 91.9 °F /  33.3 °C 43.9 °F /  6.6 °C 29.8 in /  1010.0 hPa SW 6.9 mph /  11.1 km/h 6.9 mph /  11.1 km/h 19 % 0 in /  0.0 mm
18:32 91.6 °F /  33.1 °C 43.5 °F /  6.4 °C 29.8 in /  1010.0 hPa SSW 8.1 mph /  13.0 km/h 8.1 mph /  13.0 km/h 19 % 0 in /  0.0 mm
18:37 91.6 °F /  33.1 °C 42.1 °F /  5.6 °C 29.8 in /  1010.0 hPa SW 8.1 mph /  13.0 km/h 8.1 mph /  13.0 km/h 18 % 0 in /  0.0 mm
18:42 91 °F /  32.8 °C 40.3 °F /  4.6 °C 29.8 in /  1010.0 hPa West 9.2 mph /  14.8 km/h 9.2 mph /  14.8 km/h 17 % 0 in /  0.0 mm
18:47 90.9 °F /  32.7 °C 41.5 °F /  5.3 °C 29.8 in /  1009.0 hPa SW 9.2 mph /  14.8 km/h 9.2 mph /  14.8 km/h 18 % 0 in /  0.0 mm
18:52 90.9 °F /  32.7 °C 41.5 °F /  5.3 °C 29.8 in /  1009.0 hPa WSW 9.2 mph /  14.8 km/h 9.2 mph /  14.8 km/h 18 % 0 in /  0.0 mm
18:57 90.3 °F /  32.4 °C 39.6 °F /  4.2 °C 29.8 in /  1009.0 hPa SSW 6.9 mph /  11.1 km/h 6.9 mph /  11.1 km/h 17 % 0 in /  0.0 mm
19:02 90.3 °F /  32.4 °C 39.6 °F /  4.2 °C 29.8 in /  1010.0 hPa SW 6.9 mph /  11.1 km/h 6.9 mph /  11.1 km/h 17 % 0 in /  0.0 mm
19:07 90.1 °F /  32.3 °C 39.4 °F /  4.1 °C 29.8 in /  1010.0 hPa WSW 6.9 mph /  11.1 km/h 6.9 mph /  11.1 km/h 17 % 0 in /  0.0 mm
19:12 89.6 °F /  32.0 °C 39 °F /  3.9 °C 29.8 in /  1010.0 hPa SSW 6.9 mph /  11.1 km/h 6.9 mph /  11.1 km/h 17 % 0 in /  0.0 mm
19:17 89.2 °F /  31.8 °C 40.3 °F /  4.6 °C 29.8 in /  1010.0 hPa SW 6.9 mph /  11.1 km/h 6.9 mph /  11.1 km/h 18 % 0 in /  0.0 mm
19:22 88.9 °F /  31.6 °C 39.9 °F /  4.4 °C 29.8 in /  1010.0 hPa SW 11.5 mph /  18.5 km/h 11.5 mph /  18.5 km/h 18 % 0 in /  0.0 mm
19:27 88.2 °F /  31.2 °C 40.6 °F /  4.8 °C 29.8 in /  1010.0 hPa SSW 8.1 mph /  13.0 km/h 8.1 mph /  13.0 km/h 19 % 0 in /  0.0 mm
19:32 88.3 °F /  31.3 °C 42.3 °F /  5.7 °C 29.8 in /  1010.0 hPa SSW 6.9 mph /  11.1 km/h 6.9 mph /  11.1 km/h 20 % 0 in /  0.0 mm
19:37 88.2 °F /  31.2 °C 42.1 °F /  5.6 °C 29.8 in /  1010.0 hPa SW 4.6 mph /  7.4 km/h 4.6 mph /  7.4 km/h 20 % 0 in /  0.0 mm
19:42 87.3 °F /  30.7 °C 42.6 °F /  5.9 °C 29.8 in /  1010.0 hPa SW 6.4 mph /  10.3 km/h 6.4 mph /  10.3 km/h 21 % 0 in /  0.0 mm
19:47 87.1 °F /  30.6 °C 42.4 °F /  5.8 °C 29.8 in /  1010.0 hPa SW 9.2 mph /  14.8 km/h 9.2 mph /  14.8 km/h 21 % 0 in /  0.0 mm
19:52 86.7 °F /  30.4 °C 43.3 °F /  6.3 °C 29.8 in /  1010.0 hPa SW 6.9 mph /  11.1 km/h 6.9 mph /  11.1 km/h 22 % 0 in /  0.0 mm
19:57 86.5 °F /  30.3 °C 43.2 °F /  6.2 °C 29.8 in /  1010.0 hPa WSW 4.6 mph /  7.4 km/h 4.6 mph /  7.4 km/h 22 % 0 in /  0.0 mm
20:02 86 °F /  30.0 °C 42.6 °F /  5.9 °C 29.8 in /  1010.0 hPa SW 8.1 mph /  13.0 km/h 8.1 mph /  13.0 km/h 22 % 0 in /  0.0 mm
20:07 85.8 °F /  29.9 °C 43.7 °F /  6.5 °C 29.8 in /  1010.0 hPa SW 5.6 mph /  9.0 km/h 5.6 mph /  9.0 km/h 23 % 0 in /  0.0 mm
20:12 85.5 °F /  29.7 °C 43.3 °F /  6.3 °C 29.8 in /  1010.0 hPa SSW 6.9 mph /  11.1 km/h 6.9 mph /  11.1 km/h 23 % 0 in /  0.0 mm
20:17 84.9 °F /  29.4 °C 44.1 °F /  6.7 °C 29.8 in /  1010.7 hPa WSW 5.8 mph /  9.3 km/h 5.8 mph /  9.3 km/h 24 % 0 in /  0.0 mm
20:22 84.6 °F /  29.2 °C 43.9 °F /  6.6 °C 29.8 in /  1010.7 hPa WSW 4.6 mph /  7.4 km/h 4.6 mph /  7.4 km/h 24 % 0 in /  0.0 mm
20:27 84.2 °F /  29.0 °C 44.6 °F /  7.0 °C 29.8 in /  1010.7 hPa SW 5.8 mph /  9.3 km/h 5.8 mph /  9.3 km/h 25 % 0 in /  0.0 mm
20:32 83.8 °F /  28.8 °C 44.2 °F /  6.8 °C 29.8 in /  1010.7 hPa SW 5.9 mph /  9.5 km/h 5.9 mph /  9.5 km/h 25 % 0 in /  0.0 mm
20:37 83.7 °F /  28.7 °C 45.1 °F /  7.3 °C 29.8 in /  1010.7 hPa WSW 4.6 mph /  7.4 km/h 4.6 mph /  7.4 km/h 26 % 0 in /  0.0 mm
20:42 83.3 °F /  28.5 °C 44.8 °F /  7.1 °C 29.8 in /  1010.7 hPa SSW 6.2 mph /  10.0 km/h 6.2 mph /  10.0 km/h 26 % 0 in /  0.0 mm
20:47 82.9 °F /  28.3 °C 45.5 °F /  7.5 °C 29.8 in /  1010.7 hPa SW 4.6 mph /  7.4 km/h 4.6 mph /  7.4 km/h 27 % 0 in /  0.0 mm
20:52 82.4 °F /  28.0 °C 45.1 °F /  7.3 °C 29.8 in /  1010.7 hPa SW 5.4 mph /  8.7 km/h 5.4 mph /  8.7 km/h 27 % 0 in /  0.0 mm
20:57 82 °F /  27.8 °C 45.7 °F /  7.6 °C 29.8 in /  1010.7 hPa WSW 5.8 mph /  9.3 km/h 5.8 mph /  9.3 km/h 28 % 0 in /  0.0 mm
21:02 81.7 °F /  27.6 °C 45.3 °F /  7.4 °C 29.9 in /  1011.7 hPa SW 4.6 mph /  7.4 km/h 4.6 mph /  7.4 km/h 28 % 0 in /  0.0 mm
21:07 81.3 °F /  27.4 °C 45.1 °F /  7.3 °C 29.9 in /  1011.7 hPa SW 4.6 mph /  7.4 km/h 4.6 mph /  7.4 km/h 28 % 0 in /  0.0 mm
21:12 81 °F /  27.2 °C 44.8 °F /  7.1 °C 29.9 in /  1011.7 hPa SW 6.9 mph /  11.1 km/h 6.9 mph /  11.1 km/h 28 % 0 in /  0.0 mm
21:17 80.6 °F /  27.0 °C 45.3 °F /  7.4 °C 29.8 in /  1010.7 hPa SW 7.4 mph /  11.9 km/h 7.4 mph /  11.9 km/h 29 % 0 in /  0.0 mm
21:22 80.2 °F /  26.8 °C 45.1 °F /  7.3 °C 29.8 in /  1010.7 hPa South 4.6 mph /  7.4 km/h 4.6 mph /  7.4 km/h 29 % 0 in /  0.0 mm
21:27 79.9 °F /  26.6 °C 45.7 °F /  7.6 °C 29.8 in /  1010.7 hPa South 4.6 mph /  7.4 km/h 4.6 mph /  7.4 km/h 30 % 0 in /  0.0 mm
21:32 79.5 °F /  26.4 °C 45.3 °F /  7.4 °C 29.9 in /  1011.7 hPa SW 3.5 mph /  5.6 km/h 3.5 mph /  5.6 km/h 30 % 0 in /  0.0 mm
21:37 79.2 °F /  26.2 °C 45.9 °F /  7.7 °C 29.9 in /  1011.7 hPa SSW 3.1 mph /  5.0 km/h 3.1 mph /  5.0 km/h 31 % 0 in /  0.0 mm
21:42 78.8 °F /  26.0 °C 46.4 °F /  8.0 °C 29.9 in /  1011.7 hPa SW 5.8 mph /  9.3 km/h 5.8 mph /  9.3 km/h 32 % 0 in /  0.0 mm
21:47 78.6 °F /  25.9 °C 47.1 °F /  8.4 °C 29.9 in /  1011.7 hPa SW 2.4 mph /  3.9 km/h 2.4 mph /  3.9 km/h 33 % 0 in /  0.0 mm
21:52 78.4 °F /  25.8 °C 46.9 °F /  8.3 °C 29.9 in /  1011.7 hPa SW 3.5 mph /  5.6 km/h 3.5 mph /  5.6 km/h 33 % 0 in /  0.0 mm
21:57 78.1 °F /  25.6 °C 47.5 °F /  8.6 °C 29.9 in /  1011.7 hPa WSW 3.5 mph /  5.6 km/h 3.5 mph /  5.6 km/h 34 % 0 in /  0.0 mm
22:02 77.9 °F /  25.5 °C 48 °F /  8.9 °C 29.9 in /  1011.7 hPa SW 1.6 mph /  2.6 km/h 1.6 mph /  2.6 km/h 35 % 0 in /  0.0 mm
22:07 77.7 °F /  25.4 °C 48.6 °F /  9.2 °C 29.9 in /  1011.7 hPa SW 2.4 mph /  3.9 km/h 2.4 mph /  3.9 km/h 36 % 0 in /  0.0 mm
22:12 77.5 °F /  25.3 °C 48.6 °F /  9.2 °C 29.9 in /  1011.7 hPa SW 2.3 mph /  3.7 km/h 2.3 mph /  3.7 km/h 36 % 0 in /  0.0 mm
22:22 77.2 °F /  25.1 °C 48.9 °F /  9.4 °C 29.9 in /  1011.7 hPa West 1.2 mph /  1.9 km/h   37 % 0 in /  0.0 mm
22:27 77.2 °F /  25.1 °C 48.9 °F /  9.4 °C 29.9 in /  1011.7 hPa NW 1.2 mph /  1.9 km/h   37 % 0 in /  0.0 mm
22:32 77 °F /  25.0 °C 49.5 °F /  9.7 °C 29.9 in /  1011.7 hPa Calm     38 % 0 in /  0.0 mm
22:37 77 °F /  25.0 °C 48.7 °F /  9.3 °C 29.9 in /  1011.7 hPa West 2.3 mph /  3.7 km/h 2.3 mph /  3.7 km/h 37 % 0 in /  0.0 mm
22:42 76.8 °F /  24.9 °C 49.3 °F /  9.6 °C 29.9 in /  1011.7 hPa West 2.3 mph /  3.7 km/h 2.3 mph /  3.7 km/h 38 % 0 in /  0.0 mm
22:47 76.8 °F /  24.9 °C 49.3 °F /  9.6 °C 29.9 in /  1011.7 hPa West 2 mph /  3.2 km/h 2 mph /  3.2 km/h 38 % 0 in /  0.0 mm
22:52 76.8 °F /  24.9 °C 49.3 °F /  9.6 °C 29.9 in /  1011.7 hPa WSW 2.3 mph /  3.7 km/h 2.3 mph /  3.7 km/h 38 % 0 in /  0.0 mm
22:57 76.6 °F /  24.8 °C 49.8 °F /  9.9 °C 29.9 in /  1011.7 hPa Calm     39 % 0 in /  0.0 mm
23:02 76.5 °F /  24.7 °C 49.6 °F /  9.8 °C 29.9 in /  1011.7 hPa West 2.3 mph /  3.7 km/h   39 % 0 in /  0.0 mm
23:07 76.1 °F /  24.5 °C 49.3 °F /  9.6 °C 29.9 in /  1011.7 hPa West 2.3 mph /  3.7 km/h 2.3 mph /  3.7 km/h 39 % 0 in /  0.0 mm
23:12 76.1 °F /  24.5 °C 49.3 °F /  9.6 °C 29.9 in /  1011.7 hPa West 1.4 mph /  2.3 km/h 1.4 mph /  2.3 km/h 39 % 0 in /  0.0 mm
23:17 76.1 °F /  24.5 °C 50 °F /  10.0 °C 29.9 in /  1011.7 hPa WSW 1.4 mph /  2.3 km/h 1.4 mph /  2.3 km/h 40 % 0 in /  0.0 mm
23:22 75.9 °F /  24.4 °C 49.8 °F /  9.9 °C 29.9 in /  1011.7 hPa West 2.3 mph /  3.7 km/h 2.3 mph /  3.7 km/h 40 % 0 in /  0.0 mm
23:27 75.9 °F /  24.4 °C 49.8 °F /  9.9 °C 29.9 in /  1011.7 hPa WSW 2.3 mph /  3.7 km/h 2.3 mph /  3.7 km/h 40 % 0 in /  0.0 mm
23:32 75.7 °F /  24.3 °C 50.4 °F /  10.2 °C 29.8 in /  1010.7 hPa WSW 1.4 mph /  2.3 km/h 1.4 mph /  2.3 km/h 41 % 0 in /  0.0 mm
23:37 75.7 °F /  24.3 °C 50.4 °F /  10.2 °C 29.8 in /  1010.7 hPa WSW 3.8 mph /  6.1 km/h 3.8 mph /  6.1 km/h 41 % 0 in /  0.0 mm
23:42 75.9 °F /  24.4 °C 50.5 °F /  10.3 °C 29.8 in /  1010.7 hPa WSW 3.5 mph /  5.6 km/h 3.5 mph /  5.6 km/h 41 % 0 in /  0.0 mm
23:47 75.7 °F /  24.3 °C 50.4 °F /  10.2 °C 29.8 in /  1010.7 hPa WSW 3.5 mph /  5.6 km/h 3.5 mph /  5.6 km/h 41 % 0 in /  0.0 mm
23:52 75.6 °F /  24.2 °C 50.9 °F /  10.5 °C 29.8 in /  1010.7 hPa SW 2.4 mph /  3.9 km/h 2.4 mph /  3.9 km/h 42 % 0 in /  0.0 mm
23:57 75.6 °F /  24.2 °C 50.9 °F /  10.5 °C 29.8 in /  1010.7 hPa West 2.3 mph /  3.7 km/h 2.3 mph /  3.7 km/h 42 % 0 in /  0.0 mm
Meteo Sesrovires
Elogis d' Weather Underground - 3.5 mb

Guio original per  Jim McMurry - jmcmurry@mwt.net Adaptat per a la plantilla per  Wim van der Kuil - Leuven-Template.eu

Trobareu la nostra informacio del temps tambe a:

Weather Underground

AWEKAS